Time;durP1;ratioP1;P1;durP2;ratioP2;P2;SDS_P1;SDS_P2;PMS_P1;PMS_P2;Temp;Humidity;BMP_temperature;BMP_pressure;BME280_temperature;BME280_humidity;BME280_pressure;Samples;Min_cycle;Max_cycle;Signal;HPM_P1;HPM_P2
2022/06/21 00:00:19;;;;;;;10.30;2.53;;;12.90;99.90;;;;;;10449308;28;20046;-68
2022/06/21 00:05:25;;;;;;;7.97;2.40;;;12.90;99.90;;;;;;10447687;28;20140;-68
2022/06/21 00:10:27;;;;;;;16.55;2.65;;;12.80;99.90;;;;;;10448083;28;20071;-68
2022/06/21 00:15:31;;;;;;;10.80;2.30;;;12.80;99.90;;;;;;10451100;28;20092;-68
2022/06/21 00:20:32;;;;;;;11.30;2.22;;;12.90;99.90;;;;;;10449107;28;20076;-68
2022/06/21 00:25:34;;;;;;;12.55;3.10;;;13.00;99.90;;;;;;10444580;28;20148;-68
2022/06/21 00:30:39;;;;;;;10.35;2.58;;;13.10;99.90;;;;;;10448689;28;20080;-68
2022/06/21 00:35:43;;;;;;;12.82;2.30;;;13.10;99.90;;;;;;10449815;28;20135;-68
2022/06/21 00:40:45;;;;;;;10.15;2.30;;;13.10;99.90;;;;;;10440999;28;20077;-68
2022/06/21 00:45:50;;;;;;;7.95;2.20;;;13.20;99.90;;;;;;10448333;28;20140;-68
2022/06/21 00:50:54;;;;;;;7.60;2.08;;;13.10;99.90;;;;;;10420087;28;20812;-69
2022/06/21 00:56:00;;;;;;;7.75;2.72;;;13.20;99.90;;;;;;10457945;28;20464;-68
2022/06/21 01:01:06;;;;;;;13.27;2.85;;;13.40;99.90;;;;;;10443348;28;20140;-68
2022/06/21 01:06:15;;;;;;;7.93;2.50;;;13.50;99.90;;;;;;10456951;28;20520;-68
2022/06/21 01:11:23;;;;;;;10.65;2.55;;;13.40;99.90;;;;;;10451093;28;20056;-68
2022/06/21 01:16:28;;;;;;;8.55;2.75;;;13.20;99.90;;;;;;10445919;28;20071;-68
2022/06/21 01:21:31;;;;;;;10.93;2.50;;;13.10;99.90;;;;;;10455424;28;20080;-68
2022/06/21 01:26:41;;;;;;;12.15;2.75;;;13.00;99.90;;;;;;10452333;28;20041;-68
2022/06/21 01:31:43;;;;;;;9.07;2.28;;;13.00;99.90;;;;;;10432423;28;20136;-68
2022/06/21 01:36:47;;;;;;;11.57;2.47;;;13.10;99.90;;;;;;10441050;28;20565;-69
2022/06/21 01:41:55;;;;;;;11.90;2.72;;;13.10;99.90;;;;;;10454446;28;20135;-68
2022/06/21 01:47:01;;;;;;;10.65;2.22;;;13.10;99.90;;;;;;10452181;28;20124;-68
2022/06/21 01:52:07;;;;;;;14.20;2.93;;;13.10;99.90;;;;;;10426791;28;20057;-68
2022/06/21 01:57:11;;;;;;;7.97;2.58;;;13.30;99.90;;;;;;10453964;28;20041;-68
2022/06/21 02:02:18;;;;;;;11.27;2.83;;;13.40;99.90;;;;;;10455527;28;20128;-69
2022/06/21 02:07:24;;;;;;;8.02;2.40;;;13.30;99.90;;;;;;10451750;28;20099;-68
2022/06/21 02:12:29;;;;;;;9.98;3.10;;;13.20;99.90;;;;;;10453643;28;20557;-68
2022/06/21 02:17:38;;;;;;;9.45;2.90;;;13.00;99.90;;;;;;10450146;28;20083;-68
2022/06/21 02:22:41;;;;;;;13.60;3.20;;;12.80;99.90;;;;;;10449668;28;20490;-68
2022/06/21 02:27:45;;;;;;;9.85;2.83;;;12.70;99.90;;;;;;10446547;28;20081;-68
2022/06/21 02:32:47;;;;;;;11.45;2.95;;;12.60;99.90;;;;;;10452592;28;20074;-68
2022/06/21 02:37:53;;;;;;;9.75;3.10;;;12.50;99.90;;;;;;10454313;28;20132;-68
2022/06/21 02:43:02;;;;;;;10.60;3.17;;;12.40;99.90;;;;;;10452302;28;20048;-68
2022/06/21 02:48:08;;;;;;;11.15;3.13;;;12.40;99.90;;;;;;10423481;28;20081;-69
2022/06/21 02:53:14;;;;;;;;;;;12.40;99.90;;;;;;10431237;28;20045;-68
2022/06/21 02:58:25;;;;;;;14.90;3.37;;;12.40;99.90;;;;;;10435455;28;19924;-69
2022/06/21 03:03:30;;;;;;;11.52;3.15;;;12.40;99.90;;;;;;10437995;28;20128;-68
2022/06/21 03:08:33;;;;;;;8.20;3.20;;;12.30;99.90;;;;;;10443475;28;20519;-69
2022/06/21 03:13:37;;;;;;;13.32;3.28;;;12.20;99.90;;;;;;10441592;28;20083;-69
2022/06/21 03:18:44;;;;;;;13.13;3.28;;;12.10;99.90;;;;;;10445024;28;20053;-69
2022/06/21 03:23:46;;;;;;;12.48;3.63;;;12.00;99.90;;;;;;10450592;28;20049;-69
2022/06/21 03:28:53;;;;;;;10.52;3.42;;;12.00;99.90;;;;;;10452736;28;20072;-69
2022/06/21 03:34:01;;;;;;;8.32;3.50;;;11.90;99.90;;;;;;10431060;28;20135;-69
2022/06/21 03:39:08;;;;;;;10.75;3.70;;;11.80;99.90;;;;;;10450309;28;20124;-68
2022/06/21 03:44:18;;;;;;;8.52;3.30;;;11.70;99.90;;;;;;10433537;28;20493;-68
2022/06/21 03:49:30;;;;;;;9.57;3.80;;;11.70;99.90;;;;;;10438774;28;20080;-68
2022/06/21 03:54:38;;;;;;;9.23;3.75;;;11.70;99.90;;;;;;10443313;28;20056;-68
2022/06/21 03:59:47;;;;;;;11.07;3.67;;;11.70;99.90;;;;;;10421419;28;20081;-68
2022/06/21 04:04:54;;;;;;;11.07;3.92;;;11.70;99.90;;;;;;10448214;28;20057;-68
2022/06/21 04:10:03;;;;;;;14.80;3.95;;;11.70;99.90;;;;;;10447159;28;20118;-69
2022/06/21 04:15:12;;;;;;;13.25;4.80;;;11.70;99.90;;;;;;10439511;28;20052;-68
2022/06/21 04:20:20;;;;;;;11.60;4.70;;;11.80;99.90;;;;;;10434366;28;20076;-69
2022/06/21 04:25:29;;;;;;;8.48;4.18;;;11.80;99.90;;;;;;10431680;28;20099;-69
2022/06/21 04:30:38;;;;;;;10.10;4.80;;;12.00;99.90;;;;;;10443761;28;20056;-68
2022/06/21 04:35:43;;;;;;;13.77;4.40;;;12.20;99.90;;;;;;10433872;28;20056;-69
2022/06/21 04:40:49;;;;;;;13.45;4.53;;;12.30;99.90;;;;;;10439219;28;20052;-68
2022/06/21 04:45:58;;;;;;;12.25;5.15;;;12.40;99.90;;;;;;10454781;28;20044;-69
2022/06/21 04:51:04;;;;;;;13.82;4.78;;;12.50;99.90;;;;;;10427868;28;20050;-69
2022/06/21 04:56:13;;;;;;;8.65;2.60;;;12.60;99.90;;;;;;10430906;28;20452;-68
2022/06/21 05:01:32;;;;;;;10.48;4.45;;;12.80;99.90;;;;;;10455801;28;20033;-68
2022/06/21 05:06:35;;;;;;;9.00;4.85;;;13.00;99.90;;;;;;10433483;28;20057;-68
2022/06/21 05:11:37;;;;;;;11.60;4.85;;;12.90;99.90;;;;;;10454062;28;20052;-68
2022/06/21 05:16:42;;;;;;;12.00;4.85;;;12.80;99.90;;;;;;10452467;28;20552;-68
2022/06/21 05:21:47;;;;;;;11.43;5.15;;;13.20;99.90;;;;;;10450301;28;20049;-69
2022/06/21 05:26:56;;;;;;;11.60;5.07;;;13.40;99.90;;;;;;10448491;28;20049;-69
2022/06/21 05:32:10;;;;;;;13.63;5.13;;;13.20;99.90;;;;;;10446012;28;20063;-69
2022/06/21 05:37:21;;;;;;;10.85;4.18;;;13.20;99.90;;;;;;10441542;28;20132;-69
2022/06/21 05:42:26;;;;;;;6.38;3.10;;;13.60;99.90;;;;;;10439104;28;20048;-70
2022/06/21 05:47:38;;;;;;;10.68;4.72;;;13.90;99.90;;;;;;10444617;28;20048;-69
2022/06/21 05:52:45;;;;;;;9.13;4.00;;;14.10;99.90;;;;;;10449275;28;20764;-71
2022/06/21 05:57:51;;;;;;;33.10;8.60;;;14.30;99.90;;;;;;10447124;28;20096;-70
2022/06/21 06:02:57;;;;;;;;;;;14.50;99.90;;;;;;10437817;28;20513;-74
2022/06/21 06:08:05;;;;;;;11.77;4.00;;;14.70;99.90;;;;;;10440062;28;20044;-69
2022/06/21 06:13:12;;;;;;;9.05;2.00;;;15.30;99.90;;;;;;10430577;28;106896;-69
2022/06/21 06:18:19;;;;;;;7.72;2.42;;;15.20;99.90;;;;;;10425961;28;20054;-69
2022/06/21 06:23:29;;;;;;;7.45;2.30;;;15.50;99.90;;;;;;10427332;28;20557;-70
2022/06/21 06:28:39;;;;;;;6.40;2.10;;;15.80;99.90;;;;;;10426998;28;20045;-69
2022/06/21 06:33:46;;;;;;;6.30;2.53;;;15.70;99.90;;;;;;10439395;28;20059;-70
2022/06/21 06:38:48;;;;;;;8.18;2.58;;;15.30;99.90;;;;;;10431349;28;20336;-70
2022/06/21 06:43:54;;;;;;;7.35;2.45;;;15.20;99.90;;;;;;10414330;28;20097;-69
2022/06/21 06:49:05;;;;;;;7.15;1.98;;;15.00;99.90;;;;;;10417163;28;20466;-69
2022/06/21 06:54:15;;;;;;;7.18;2.40;;;14.80;99.90;;;;;;10444437;28;20049;-69
2022/06/21 06:59:22;;;;;;;6.72;1.90;;;15.30;99.90;;;;;;10417609;28;20189;-69
2022/06/21 07:04:29;;;;;;;9.55;2.42;;;15.90;99.90;;;;;;10440839;28;20037;-70
2022/06/21 07:09:36;;;;;;;5.18;1.90;;;16.30;99.90;;;;;;10431493;28;20092;-69
2022/06/21 07:14:38;;;;;;;7.72;1.80;;;16.40;99.90;;;;;;10421973;28;20132;-69
2022/06/21 07:19:42;;;;;;;7.50;2.17;;;17.50;99.90;;;;;;10441625;28;20103;-69
2022/06/21 07:24:49;;;;;;;6.15;2.00;;;18.70;99.90;;;;;;10443062;28;20098;-69
2022/06/21 07:29:57;;;;;;;5.97;1.58;;;19.30;99.90;;;;;;10437476;28;20041;-69
2022/06/21 07:35:03;;;;;;;7.13;1.70;;;19.50;99.90;;;;;;10446540;28;20421;-70
2022/06/21 07:40:11;;;;;;;4.00;1.15;;;19.70;99.90;;;;;;10448559;28;20056;-69
2022/06/21 07:45:18;;;;;;;3.92;1.80;;;19.60;99.90;;;;;;10441146;28;20045;-69
2022/06/21 07:50:26;;;;;;;6.32;1.60;;;19.10;99.90;;;;;;10411680;28;20136;-69
2022/06/21 07:55:33;;;;;;;2.90;1.20;;;18.30;99.90;;;;;;10445549;28;20102;-70
2022/06/21 08:11:19;;;;;;;4.70;1.45;;;19.20;99.90;;;;;;10420253;28;20210;-69
2022/06/21 08:16:25;;;;;;;5.07;1.40;;;19.70;99.90;;;;;;10422016;28;20115;-68
2022/06/21 08:21:37;;;;;;;2.97;1.33;;;20.00;99.90;;;;;;10439733;28;20445;-68
2022/06/21 08:26:43;;;;;;;4.65;1.67;;;20.10;99.90;;;;;;10450909;28;20049;-69
2022/06/21 08:31:50;;;;;;;5.28;1.30;;;19.70;99.90;;;;;;10449232;28;20057;-69
2022/06/21 08:36:56;;;;;;;6.10;1.60;;;19.50;99.90;;;;;;10450181;28;20478;-68
2022/06/21 08:42:12;;;;;;;4.25;1.67;;;20.40;99.90;;;;;;10452144;28;20079;-68
2022/06/21 08:47:51;;;;;;;3.17;1.13;;;20.30;99.90;;;;;;10450148;28;20135;-68
2022/06/21 08:53:32;;;;;;;5.85;1.77;;;19.60;99.90;;;;;;10424422;28;20057;-70
2022/06/21 08:58:49;;;;;;;3.35;1.17;;;18.90;99.90;;;;;;10426358;28;20111;-68
2022/06/21 09:04:22;;;;;;;4.82;1.58;;;18.60;99.90;;;;;;10454342;28;20037;-69
2022/06/21 09:09:52;;;;;;;4.35;1.40;;;18.40;99.90;;;;;;10457512;28;20053;-69
2022/06/21 09:15:14;;;;;;;2.97;1.30;;;19.10;99.90;;;;;;10455513;28;20086;-69
2022/06/21 09:20:32;;;;;;;4.03;1.23;;;19.70;99.90;;;;;;10441867;28;20145;-69
2022/06/21 09:25:45;;;;;;;5.72;1.33;;;20.30;99.90;;;;;;10444770;28;20111;-69
2022/06/21 09:30:56;;;;;;;4.07;1.60;;;20.90;99.90;;;;;;10427788;28;20053;-70
2022/06/21 09:36:09;;;;;;;6.43;2.25;;;21.30;99.90;;;;;;10447554;28;20505;-68
2022/06/21 09:41:16;;;;;;;4.22;1.30;;;21.20;99.80;;;;;;10450448;28;20045;-69
2022/06/21 09:46:30;;;;;;;3.00;1.20;;;21.50;99.80;;;;;;10444951;28;20542;-69
2022/06/21 09:51:41;;;;;;;2.20;1.00;;;21.10;99.40;;;;;;10421794;28;20076;-69
2022/06/21 09:56:48;;;;;;;3.35;1.27;;;20.30;99.90;;;;;;10454883;28;20498;-68
2022/06/21 10:01:58;;;;;;;5.45;1.20;;;20.10;99.90;;;;;;10441293;28;20050;-69
2022/06/21 10:07:13;;;;;;;2.78;1.10;;;19.70;99.90;;;;;;10447539;28;20442;-68
2022/06/21 10:12:25;;;;;;;4.13;1.40;;;20.10;99.90;;;;;;10445604;28;20057;-69
2022/06/21 10:17:58;;;;;;;2.30;1.00;;;20.60;99.90;;;;;;10444462;28;20115;-69
2022/06/21 10:23:14;;;;;;;5.38;1.50;;;20.90;99.90;;;;;;10454875;28;20445;-69
2022/06/21 10:28:54;;;;;;;4.27;1.40;;;21.30;98.40;;;;;;10440759;28;20401;-70
2022/06/21 10:34:24;;;;;;;5.25;1.38;;;21.60;99.40;;;;;;10455504;28;20578;-71
2022/06/21 10:39:58;;;;;;;2.45;0.90;;;21.90;99.60;;;;;;10395451;28;20057;-72
2022/06/21 10:45:20;;;;;;;3.85;1.50;;;21.90;97.30;;;;;;10433245;28;20156;-71
2022/06/21 10:50:34;;;;;;;3.35;1.40;;;21.30;98.80;;;;;;10441445;28;20059;-70
2022/06/21 11:01:29;;;;;;;5.32;1.73;;;21.10;97.60;;;;;;10438842;28;20052;-71
2022/06/21 11:06:44;;;;;;;3.58;1.20;;;21.20;98.80;;;;;;10425985;28;20558;-71
2022/06/21 11:11:55;;;;;;;5.28;1.50;;;21.30;97.30;;;;;;10442486;28;20290;-69
2022/06/21 11:17:08;;;;;;;5.82;1.20;;;20.90;99.90;;;;;;10431027;28;20041;-70
2022/06/21 11:22:27;;;;;;;3.08;1.00;;;20.80;99.10;;;;;;10441286;28;20041;-70
2022/06/21 11:27:36;;;;;;;3.92;1.13;;;21.10;98.60;;;;;;10439461;28;20075;-71
2022/06/21 11:32:48;;;;;;;4.55;1.20;;;21.30;97.30;;;;;;10437526;28;20144;-71
2022/06/21 11:38:06;;;;;;;1.80;1.02;;;21.40;97.10;;;;;;10442665;28;20045;-70
2022/06/21 11:43:22;;;;;;;3.33;1.13;;;21.40;97.50;;;;;;10416858;28;20132;-70
2022/06/21 11:48:53;;;;;;;4.43;1.38;;;21.60;97.40;;;;;;10412346;28;20054;-70
2022/06/21 11:54:01;;;;;;;3.03;1.20;;;21.90;97.80;;;;;;10432277;28;20084;-70
2022/06/21 11:59:13;;;;;;;2.95;1.25;;;21.80;96.50;;;;;;10436586;28;20041;-70
2022/06/21 12:04:24;;;;;;;3.28;1.10;;;21.80;96.40;;;;;;10440783;28;20493;-70
2022/06/21 12:09:37;;;;;;;4.13;1.40;;;21.90;98.00;;;;;;10417057;28;20136;-70
2022/06/21 12:14:52;;;;;;;5.40;1.10;;;22.20;95.90;;;;;;10442524;28;20474;-70
2022/06/21 12:20:00;;;;;;;4.50;1.05;;;22.00;97.20;;;;;;10439942;28;20496;-70
2022/06/21 12:25:04;;;;;;;2.83;1.10;;;22.10;96.10;;;;;;10443263;28;20045;-70
2022/06/21 12:30:17;;;;;;;3.63;0.90;;;22.00;98.20;;;;;;10410875;28;20081;-70
2022/06/21 12:35:20;;;;;;;2.70;1.10;;;22.30;99.60;;;;;;10438816;28;20536;-71
2022/06/21 12:40:32;;;;;;;5.25;1.38;;;22.50;97.00;;;;;;10454716;28;20080;-70
2022/06/21 12:45:49;;;;;;;3.92;1.13;;;22.60;96.60;;;;;;10446837;28;20102;-70
2022/06/21 12:51:00;;;;;;;3.40;1.15;;;22.70;96.30;;;;;;10448342;28;20058;-70
2022/06/21 12:56:12;;;;;;;3.15;1.10;;;22.80;95.10;;;;;;10445986;28;20115;-71
2022/06/21 13:01:22;;;;;;;2.90;0.80;;;22.80;95.30;;;;;;10444439;28;20107;-70
2022/06/21 13:07:10;;;;;;;3.30;1.10;;;22.80;95.50;;;;;;10420934;28;20127;-71
2022/06/21 13:12:30;;;;;;;4.40;1.45;;;22.80;95.60;;;;;;10452462;28;20375;-71
2022/06/21 13:17:58;;;;;;;2.20;1.13;;;22.90;96.60;;;;;;10455135;28;20048;-71
2022/06/21 13:23:07;;;;;;;3.42;1.13;;;23.00;95.60;;;;;;10458252;28;20503;-71
2022/06/21 13:28:26;;;;;;;5.22;1.20;;;23.10;95.40;;;;;;10454662;28;20076;-70
2022/06/21 13:33:30;;;;;;;2.83;1.10;;;23.00;95.80;;;;;;10458133;28;20064;-71
2022/06/21 13:38:43;;;;;;;2.80;1.00;;;23.00;96.20;;;;;;10445973;28;20045;-71
2022/06/21 13:43:47;;;;;;;3.50;0.90;;;23.00;96.30;;;;;;10451534;28;20119;-70
2022/06/21 13:48:52;;;;;;;5.50;1.17;;;23.10;95.30;;;;;;10437958;28;20088;-71
2022/06/21 13:53:57;;;;;;;3.28;1.30;;;23.00;96.30;;;;;;10426195;28;20073;-70
2022/06/21 13:59:05;;;;;;;3.67;1.10;;;22.80;95.20;;;;;;10443643;28;20080;-70
2022/06/21 14:04:15;;;;;;;2.58;1.00;;;22.70;94.90;;;;;;10435671;28;20461;-70
2022/06/21 14:09:24;;;;;;;2.65;0.93;;;22.60;96.20;;;;;;10442271;28;20204;-70
2022/06/21 14:14:38;;;;;;;2.50;1.20;;;22.80;95.30;;;;;;10430382;28;20135;-71
2022/06/21 14:19:47;;;;;;;2.00;0.93;;;22.80;93.90;;;;;;10441885;28;20064;-70
2022/06/21 14:24:56;;;;;;;3.20;1.13;;;22.70;94.70;;;;;;10438814;28;20056;-70
2022/06/21 14:30:05;;;;;;;3.67;0.93;;;23.10;94.50;;;;;;10453349;28;20467;-70
2022/06/21 14:35:14;;;;;;;3.40;0.90;;;23.30;94.70;;;;;;10426181;28;20057;-69
2022/06/21 14:40:24;;;;;;;4.30;1.20;;;23.40;95.20;;;;;;10427314;28;20041;-69
2022/06/21 14:45:38;;;;;;;2.45;1.00;;;23.50;94.20;;;;;;10437291;28;20046;-69
2022/06/21 14:50:45;;;;;;;4.57;1.13;;;23.60;94.60;;;;;;10443679;28;20102;-70
2022/06/21 14:56:06;;;;;;;3.13;1.00;;;23.60;93.90;;;;;;10447910;28;20072;-69
2022/06/21 15:01:18;;;;;;;3.85;1.65;;;23.50;92.40;;;;;;10413163;28;20132;-68
2022/06/21 15:06:29;;;;;;;2.63;1.00;;;23.20;93.30;;;;;;10427698;28;20045;-68
2022/06/21 15:11:55;;;;;;;3.90;1.40;;;23.00;93.50;;;;;;10423481;28;20135;-69
2022/06/21 15:17:12;;;;;;;5.18;1.00;;;22.90;93.10;;;;;;10447869;28;20047;-69
2022/06/21 15:22:28;;;;;;;3.75;1.70;;;22.80;92.90;;;;;;10434982;28;20041;-70
2022/06/21 15:27:34;;;;;;;21.73;2.65;;;22.60;95.00;;;;;;10437367;28;20087;-70
2022/06/21 15:32:48;;;;;;;3.33;1.52;;;22.50;97.00;;;;;;10438882;28;20144;-70
2022/06/21 15:37:55;;;;;;;7.93;2.35;;;22.50;96.60;;;;;;10445193;28;20136;-69
2022/06/21 15:43:01;;;;;;;3.95;1.73;;;22.50;98.40;;;;;;10430505;28;20128;-70
2022/06/21 15:53:43;;;;;;;4.78;1.38;;;21.80;97.00;;;;;;10441425;28;20045;-70
2022/06/21 15:58:58;;;;;;;3.97;1.42;;;21.50;98.30;;;;;;10428011;28;20138;-70
2022/06/21 16:04:23;;;;;;;2.75;1.23;;;21.30;98.40;;;;;;10445334;28;20523;-72
2022/06/21 16:09:29;;;;;;;2.50;1.50;;;21.00;97.60;;;;;;10438659;28;20513;-70
2022/06/21 16:14:36;;;;;;;9.88;2.97;;;21.00;98.00;;;;;;10433162;28;21093;-70
2022/06/21 16:19:47;;;;;;;;;;;21.20;99.80;;;;;;10437109;28;20164;-72
2022/06/21 16:24:54;;;;;;;3.70;1.40;;;21.10;98.10;;;;;;10437465;28;20007;-70
2022/06/21 16:30:01;;;;;;;7.75;3.13;;;20.60;99.20;;;;;;10427398;28;20152;-70
2022/06/21 16:35:11;;;;;;;12.52;3.35;;;20.50;99.90;;;;;;10451681;28;20055;-72
2022/06/21 16:42:54;;;;;;;10.38;3.13;;;20.40;99.90;;;;;;10452886;28;20128;-70
2022/06/21 16:45:53;;;;;;;13.88;4.22;;;20.20;99.90;;;;;;10432718;28;21276;-69
2022/06/21 16:51:05;;;;;;;8.43;3.25;;;20.10;99.90;;;;;;10431508;28;20472;-69
2022/06/21 16:56:16;;;;;;;8.93;3.20;;;20.00;99.90;;;;;;10435420;28;20049;-69
2022/06/21 17:01:21;;;;;;;7.18;3.30;;;19.80;99.90;;;;;;10427655;28;20547;-70
2022/06/21 17:06:28;;;;;;;8.90;3.30;;;19.80;99.90;;;;;;10447364;28;20148;-71
2022/06/21 17:11:30;;;;;;;9.43;3.50;;;19.40;99.90;;;;;;10454122;28;20132;-70
2022/06/21 17:16:41;;;;;;;9.15;3.67;;;19.00;99.90;;;;;;10447649;28;20132;-71
2022/06/21 17:21:54;;;;;;;9.65;3.60;;;18.60;99.90;;;;;;10439252;28;20081;-71
2022/06/21 17:27:11;;;;;;;8.93;4.05;;;18.30;99.90;;;;;;10447298;28;20072;-71
2022/06/21 17:32:19;;;;;;;9.60;4.20;;;18.10;99.90;;;;;;10447761;28;20049;-73
2022/06/21 17:37:34;;;;;;;8.18;3.78;;;18.10;99.90;;;;;;10442413;28;20060;-70
2022/06/21 17:42:44;;;;;;;10.20;3.60;;;18.30;99.90;;;;;;10450377;28;20052;-70
2022/06/21 17:47:52;;;;;;;6.82;3.50;;;18.40;99.90;;;;;;10457554;28;20124;-70
2022/06/21 17:53:00;;;;;;;9.95;3.90;;;18.40;99.90;;;;;;10456459;28;20092;-70
2022/06/21 17:58:08;;;;;;;7.60;3.67;;;18.30;99.90;;;;;;10440592;28;20076;-70
2022/06/21 18:03:27;;;;;;;11.85;3.30;;;18.30;99.90;;;;;;10439559;28;20061;-70
2022/06/21 18:08:39;;;;;;;10.23;3.70;;;18.30;99.90;;;;;;10456708;28;20595;-71
2022/06/21 18:13:57;;;;;;;6.97;3.60;;;18.20;99.90;;;;;;10449574;28;20469;-71
2022/06/21 18:19:14;;;;;;;7.35;3.70;;;18.20;99.90;;;;;;10415277;28;20124;-71
2022/06/21 18:24:25;;;;;;;8.90;4.47;;;18.20;99.90;;;;;;10414621;28;20102;-71
2022/06/21 18:29:37;;;;;;;8.63;4.05;;;18.10;99.90;;;;;;10412009;28;20060;-71
2022/06/21 18:34:39;;;;;;;10.27;4.20;;;18.10;99.90;;;;;;10414099;28;20053;-71
2022/06/21 18:39:55;;;;;;;9.13;4.82;;;18.10;99.90;;;;;;10452742;28;20580;-70
2022/06/21 18:45:11;;;;;;;10.33;4.60;;;18.10;99.90;;;;;;10413831;28;20128;-71
2022/06/21 18:50:24;;;;;;;11.80;5.75;;;18.10;99.90;;;;;;10439476;28;20486;-71
2022/06/21 18:55:37;;;;;;;8.40;3.97;;;18.00;99.90;;;;;;10453366;28;20061;-71
2022/06/21 19:00:48;;;;;;;9.82;3.95;;;17.90;99.90;;;;;;10451584;28;20076;-70
2022/06/21 19:11:39;;;;;;;9.70;4.47;;;17.70;99.90;;;;;;10442012;28;20182;-71
2022/06/21 19:17:22;;;;;;;8.90;3.83;;;17.50;99.90;;;;;;10453432;28;20056;-70
2022/06/21 19:22:44;;;;;;;9.18;4.28;;;17.40;99.90;;;;;;10383677;28;20476;-71
2022/06/21 19:27:56;;;;;;;7.30;4.20;;;17.20;99.90;;;;;;10412370;28;20045;-70
2022/06/21 19:33:15;;;;;;;8.25;4.10;;;17.10;99.90;;;;;;10412091;28;20054;-71
2022/06/21 19:38:29;;;;;;;7.95;4.00;;;16.90;99.90;;;;;;10431365;28;20088;-70
2022/06/21 19:43:48;;;;;;;9.27;3.72;;;16.80;99.90;;;;;;10441906;28;20131;-71
2022/06/21 19:48:55;;;;;;;8.57;3.80;;;16.80;99.90;;;;;;10452277;28;20048;-71
2022/06/21 19:54:02;;;;;;;9.30;4.15;;;16.70;99.90;;;;;;10452906;28;20053;-70
2022/06/21 19:59:25;;;;;;;8.80;4.07;;;16.50;99.90;;;;;;10419388;28;20081;-70
2022/06/21 20:04:47;;;;;;;8.73;4.55;;;16.50;99.90;;;;;;10442501;28;20057;-71
2022/06/21 20:09:54;;;;;;;13.93;4.53;;;16.30;99.90;;;;;;10451273;28;20489;-70
2022/06/21 20:15:06;;;;;;;11.73;4.60;;;16.20;99.90;;;;;;10426358;28;20509;-71
2022/06/21 20:20:22;;;;;;;8.95;4.68;;;16.10;99.90;;;;;;10411959;28;20084;-71
2022/06/21 20:25:32;;;;;;;10.02;4.53;;;15.90;99.90;;;;;;10427276;28;20053;-68
2022/06/21 20:30:53;;;;;;;9.95;5.32;;;15.80;99.90;;;;;;10437919;28;20056;-69
2022/06/21 20:35:59;;;;;;;12.02;4.90;;;15.60;99.90;;;;;;10418741;28;20131;-68
2022/06/21 20:41:04;;;;;;;9.88;4.68;;;15.50;99.90;;;;;;10441758;28;20112;-68
2022/06/21 20:46:37;;;;;;;12.60;5.72;;;15.40;99.90;;;;;;10432725;28;20099;-68
2022/06/21 20:51:42;;;;;;;9.10;5.78;;;15.40;99.90;;;;;;10450180;28;20045;-69
2022/06/21 20:56:58;;;;;;;13.35;7.30;;;15.10;99.90;;;;;;10438635;28;20494;-69
2022/06/21 21:02:11;;;;;;;16.33;7.80;;;14.90;99.90;;;;;;10437115;28;20136;-69
2022/06/21 21:07:19;;;;;;;12.25;7.47;;;14.80;99.90;;;;;;10454394;28;20119;-68
2022/06/21 21:12:27;;;;;;;12.63;8.15;;;14.70;99.90;;;;;;10435966;28;20080;-68
2022/06/21 21:17:33;;;;;;;18.10;9.30;;;14.70;99.90;;;;;;10444364;28;20053;-69
2022/06/21 21:22:44;;;;;;;13.10;8.05;;;14.70;99.90;;;;;;10436041;28;20053;-68
2022/06/21 21:27:49;;;;;;;13.10;7.30;;;14.60;99.90;;;;;;10423673;28;20068;-68
2022/06/21 21:33:20;;;;;;;16.10;7.90;;;14.60;99.90;;;;;;10456881;28;20139;-68
2022/06/21 21:38:32;;;;;;;12.73;7.45;;;14.40;99.90;;;;;;10453832;28;20061;-67
2022/06/21 21:43:38;;;;;;;14.02;7.68;;;14.40;99.90;;;;;;10431717;28;20044;-67
2022/06/21 21:48:45;;;;;;;14.43;8.43;;;14.40;99.90;;;;;;10448510;28;20212;-67
2022/06/21 21:53:51;;;;;;;13.05;7.97;;;14.30;99.90;;;;;;10457252;28;20060;-67
2022/06/21 21:58:54;;;;;;;13.93;9.18;;;14.30;99.90;;;;;;10453927;28;20045;-67
2022/06/21 22:04:18;;;;;;;11.98;9.65;;;14.30;99.90;;;;;;10449949;28;20098;-67
2022/06/21 22:09:38;;;;;;;11.45;9.23;;;14.20;99.90;;;;;;10428164;28;20141;-68
2022/06/21 22:14:50;;;;;;;14.43;9.88;;;14.10;99.90;;;;;;10426208;28;20546;-68
2022/06/21 22:20:05;;;;;;;14.02;9.82;;;13.90;99.90;;;;;;10422626;28;20041;-67
2022/06/21 22:25:19;;;;;;;15.98;9.40;;;13.90;99.90;;;;;;10446354;28;20049;-67
2022/06/21 22:30:23;;;;;;;17.77;10.05;;;13.90;99.90;;;;;;10421536;28;20128;-68
2022/06/21 22:35:32;;;;;;;15.18;10.35;;;13.80;99.90;;;;;;10445619;28;20080;-67
2022/06/21 22:40:37;;;;;;;16.75;10.52;;;13.80;99.90;;;;;;10445141;28;20053;-67
2022/06/21 22:45:41;;;;;;;16.70;11.38;;;13.70;99.90;;;;;;10441238;28;20055;-69
2022/06/21 22:50:47;;;;;;;20.60;11.65;;;13.70;99.90;;;;;;10432696;28;20088;-69
2022/06/21 22:55:52;;;;;;;15.98;10.85;;;13.70;99.90;;;;;;10425659;28;20141;-69
2022/06/21 23:00:57;;;;;;;15.38;9.73;;;13.70;99.90;;;;;;10439139;28;20131;-69
2022/06/21 23:06:03;;;;;;;14.35;10.52;;;13.70;99.90;;;;;;10453325;28;20049;-69
2022/06/21 23:11:12;;;;;;;15.18;10.60;;;13.70;99.90;;;;;;10450334;28;20049;-69
2022/06/21 23:16:25;;;;;;;14.43;10.70;;;13.70;99.90;;;;;;10450718;28;20129;-69
2022/06/21 23:21:39;;;;;;;11.88;9.90;;;13.60;99.90;;;;;;10435354;28;20075;-69
2022/06/21 23:26:47;;;;;;;15.32;10.82;;;13.60;99.90;;;;;;10439033;28;20469;-69
2022/06/21 23:31:54;;;;;;;14.00;9.73;;;13.50;99.90;;;;;;10449915;28;20090;-69
2022/06/21 23:36:59;;;;;;;11.55;9.38;;;13.50;99.90;;;;;;10451045;28;20143;-69
2022/06/21 23:42:04;;;;;;;11.52;9.57;;;13.40;99.90;;;;;;10450902;28;20044;-69
2022/06/21 23:47:14;;;;;;;13.70;10.02;;;13.30;99.90;;;;;;10451935;28;20114;-69
2022/06/21 23:52:21;;;;;;;16.70;11.05;;;13.30;99.90;;;;;;10449869;28;20056;-69
2022/06/21 23:57:27;;;;;;;12.80;11.15;;;13.30;99.90;;;;;;10436327;28;20053;-69
